Saturday, November 18, 2017, 7:09 AM EST
Back to Local

KPSF, Pittsfield Municipal Airport

Location: Pittsfield, MA, United States Lat: 42.433
Local Time: 7:09 AM EST (12:09 GMT) Lon: -73.283
Time Zone: US/Eastern Elev: 1194 ft

Show me the last for .
Show Decoded

2017-11-18 06:54 METAR KPSF 181154Z AUTO 00000KT 10SM CLR M06/M08 A2989 RMK AO2 SLP137 T10561083
                 11028 21067 58009 =
2017-11-18 05:54 METAR KPSF 181054Z AUTO 00000KT 10SM CLR M06/M09 A2990 RMK AO2 SLP140 T10561089
                 =
2017-11-18 04:54 METAR KPSF 180954Z AUTO 00000KT 10SM CLR M06/M09 A2992 RMK AO2 SLP146 T10611094
                 =
2017-11-18 03:54 METAR KPSF 180854Z AUTO 01004KT 10SM CLR M06/M09 A2992 RMK AO2 SLP145 T10561089
                 58018 =
2017-11-18 02:54 METAR KPSF 180754Z AUTO 29004KT 10SM CLR M06/M09 A2995 RMK AO2 SLP153 T10561089
                 =
2017-11-18 01:54 METAR KPSF 180654Z AUTO 23005KT 10SM CLR M03/M11 A2996 RMK AO2 SLP155 T10281106
                 =
2017-11-18 00:54 METAR KPSF 180554Z AUTO 25008KT 10SM CLR M03/M09 A2997 RMK AO2 SLP160 T10331094
                 11011 21033 58005 =
2017-11-17 23:54 METAR KPSF 180454Z AUTO 28008KT 10SM CLR M03/M09 A2999 RMK AO2 SLP166 T10281094
                 400281033 =
2017-11-17 22:54 METAR KPSF 180354Z AUTO 29010KT 10SM CLR M03/M09 A3000 RMK AO2 SLP171 T10281094
                 =
2017-11-17 21:54 METAR KPSF 180254Z AUTO 29006KT 10SM CLR M03/M09 A2999 RMK AO2 SLP168 T10331094
                 58016 =
2017-11-17 20:54 METAR KPSF 180154Z AUTO 29005KT 10SM CLR M02/M09 A3002 RMK AO2 SLP176 T10221094
                 =
2017-11-17 19:54 METAR KPSF 180054Z AUTO 30012KT 10SM CLR M02/M09 A3003 RMK AO2 SLP181 T10171094
                 =
2017-11-17 18:54 METAR KPSF 172354Z AUTO 29006KT 10SM CLR M02/M09 A3004 RMK AO2 SLP183 T10171089
                 10028 21022 51009 =
2017-11-17 17:54 METAR KPSF 172254Z AUTO 27009G18KT 200V300 10SM CLR M01/M09 A3003 RMK AO2 SLP180
                 T10061089 =
2017-11-17 16:54 METAR KPSF 172154Z AUTO 24007KT 10SM CLR 00/M09 A3003 RMK AO2 SLP176 T00001089 =
2017-11-17 15:54 METAR KPSF 172054Z AUTO 28007G16KT 260V340 10SM CLR 01/M08 A3001 RMK AO2 SLP170
                 T00111083 53017 =
2017-11-17 14:54 METAR KPSF 171954Z AUTO 29005KT 10SM CLR 02/M08 A2999 RMK AO2 SLP162 T00171083 =
2017-11-17 13:54 METAR KPSF 171854Z AUTO 29010G17KT 10SM CLR 02/M08 A2997 RMK AO2 PK WND
                 30026/1808 SLP156 T00221078 =
2017-11-17 12:54 METAR KPSF 171754Z AUTO 29014G24KT 10SM FEW032 02/M07 A2996 RMK AO2 PK WND
                 27028/1743 SLP151 T00171072 10022 21006 56009 =
2017-11-17 11:54 METAR KPSF 171654Z AUTO 32009G18KT 300V360 10SM SCT026 01/M07 A2996 RMK AO2
                 SLP152 T00061067 =
2017-11-17 10:54 METAR KPSF 171554Z AUTO 30014G21KT 10SM OVC023 00/M06 A2998 RMK AO2 SLP160
                 T00001061 =
2017-11-17 09:54 METAR KPSF 171454Z AUTO 29009G23KT 260V330 10SM OVC023 M01/M06 A2999 RMK AO2 PK
                 WND 29027/1432 SLP162 T10061061 51018 =
2017-11-17 08:54 METAR KPSF 171354Z AUTO 32011G26KT 10SM OVC022 M01/M06 A2997 RMK AO2 PK WND
                 29029/1331 SLP156 T10061061 =
2017-11-17 07:54 METAR KPSF 171254Z AUTO 31014G29KT 10SM OVC024 M01/M06 A2996 RMK AO2 PK WND
                 30034/1228 SLP150 T10061056 =

Support USWX by starting your Amazon purchase here.